createdAt,value
2019-04-14T00:02:22.821Z,53.00
2019-04-14T00:04:52.941Z,52.50
2019-04-14T00:07:23.084Z,44.50
2019-04-14T00:09:52.646Z,53.00
2019-04-14T00:12:23.073Z,52.50
2019-04-14T00:14:53.290Z,49.50
2019-04-14T00:17:23.594Z,53.50
2019-04-14T00:19:54.925Z,54.50
2019-04-14T00:22:26.557Z,45.00
2019-04-14T00:24:55.351Z,55.50
2019-04-14T00:27:24.479Z,48.00
2019-04-14T00:29:54.577Z,51.00
2019-04-14T00:32:24.728Z,49.00
2019-04-14T00:35:02.205Z,54.00
2019-04-14T00:37:36.471Z,50.50
2019-04-14T00:40:10.482Z,57.50
2019-04-14T00:42:47.364Z,42.00
2019-04-14T00:45:48.223Z,47.00
2019-04-14T00:48:18.986Z,47.50
2019-04-14T00:50:47.410Z,53.00
2019-04-14T00:53:16.628Z,48.50
2019-04-14T00:55:46.609Z,45.00
2019-04-14T00:58:16.985Z,55.50
2019-04-14T01:00:47.227Z,41.50
2019-04-14T01:03:17.535Z,43.50
2019-04-14T01:05:46.715Z,47.00
2019-04-14T01:08:16.348Z,46.00
2019-04-14T01:10:45.458Z,49.00
2019-04-14T01:13:15.666Z,53.00
2019-04-14T01:15:51.217Z,39.00
2019-04-14T01:18:16.763Z,47.50
2019-04-14T01:20:47.014Z,44.50
2019-04-14T01:23:17.124Z,45.00
2019-04-14T01:25:46.314Z,47.00
2019-04-14T01:28:15.847Z,58.00
2019-04-14T01:30:45.859Z,46.50
2019-04-14T01:33:16.320Z,53.00
2019-04-14T01:35:46.611Z,48.00
2019-04-14T01:38:16.864Z,44.50
2019-04-14T01:40:47.271Z,43.00
2019-04-14T01:43:16.703Z,58.50
2019-04-14T01:45:58.105Z,65.00
2019-04-14T01:48:17.127Z,42.00
2019-04-14T01:50:56.725Z,48.00
2019-04-14T01:53:44.564Z,54.50
2019-04-14T01:56:38.634Z,50.00
2019-04-14T02:01:44.054Z,57.50
2019-04-14T02:04:13.857Z,54.50
2019-04-14T02:06:44.129Z,44.50
2019-04-14T02:09:14.089Z,51.00
2019-04-14T02:11:44.599Z,55.00
2019-04-14T02:14:14.760Z,56.00
2019-04-14T02:16:50.050Z,61.00
2019-04-14T02:19:15.368Z,50.50
2019-04-14T02:21:45.842Z,41.00
2019-04-14T02:24:15.694Z,54.50
2019-04-14T02:26:45.828Z,58.50
2019-04-14T02:29:15.018Z,62.50
2019-04-14T02:32:11.204Z,43.50
2019-04-14T02:34:49.552Z,50.50
2019-04-14T02:37:26.318Z,59.00
2019-04-14T02:39:48.209Z,59.50
2019-04-14T02:44:44.253Z,51.00
2019-04-14T02:47:36.674Z,59.50
2019-04-14T02:52:20.690Z,56.50
2019-04-14T02:59:51.205Z,59.00
2019-04-14T03:04:51.042Z,55.50
2019-04-14T03:07:28.207Z,45.00
2019-04-14T03:12:25.030Z,58.00
2019-04-14T03:14:57.059Z,66.00
2019-04-14T03:20:33.884Z,53.50
2019-04-14T03:23:05.050Z,57.00
2019-04-14T03:26:00.983Z,60.00
2019-04-14T03:28:38.427Z,55.50
2019-04-14T03:34:12.824Z,51.00
2019-04-14T03:36:58.207Z,52.00
2019-04-14T03:38:50.409Z,63.50
2019-04-14T03:43:39.481Z,54.50
2019-04-14T03:46:23.641Z,54.50
2019-04-14T03:51:16.697Z,50.00
2019-04-14T03:53:44.047Z,60.50
2019-04-14T03:56:27.462Z,66.00
2019-04-14T03:58:57.605Z,58.50
2019-04-14T04:01:27.962Z,51.50
2019-04-14T04:03:58.514Z,57.00
2019-04-14T04:06:27.583Z,65.50
2019-04-14T04:08:57.469Z,58.00
2019-04-14T04:11:27.922Z,69.50
2019-04-14T04:13:57.004Z,51.50
2019-04-14T04:16:42.301Z,61.00
2019-04-14T04:19:19.637Z,53.50
2019-04-14T04:24:56.465Z,58.50
2019-04-14T04:27:54.766Z,56.00
2019-04-14T04:30:34.066Z,53.00
2019-04-14T04:33:13.317Z,48.00
2019-04-14T04:35:50.074Z,71.00
2019-04-14T04:38:31.313Z,57.00
2019-04-14T04:41:01.499Z,56.50
2019-04-14T04:43:31.847Z,72.00
2019-04-14T04:46:01.128Z,62.00
2019-04-14T04:48:30.711Z,67.50
2019-04-14T04:51:00.686Z,67.00
2019-04-14T04:53:30.925Z,66.00
2019-04-14T04:55:59.995Z,66.00
2019-04-14T04:58:28.977Z,56.50
2019-04-14T05:03:27.488Z,68.50
2019-04-14T05:07:05.587Z,59.50
2019-04-14T05:10:00.248Z,59.50
2019-04-14T05:12:37.002Z,55.50
2019-04-14T05:15:25.355Z,61.50
2019-04-14T05:17:54.447Z,69.00
2019-04-14T05:20:23.467Z,65.50
2019-04-14T05:25:23.219Z,76.00
2019-04-14T05:27:53.706Z,74.00
2019-04-14T05:30:24.042Z,61.50
2019-04-14T05:32:54.378Z,59.50
2019-04-14T05:35:29.665Z,77.00
2019-04-14T05:37:59.664Z,55.00
2019-04-14T05:40:29.912Z,69.00
2019-04-14T05:43:00.156Z,64.00
2019-04-14T05:45:30.545Z,54.50
2019-04-14T05:48:00.978Z,66.00
2019-04-14T05:50:31.258Z,59.00
2019-04-14T05:53:00.404Z,66.00
2019-04-14T05:55:31.224Z,58.00
2019-04-14T05:58:01.336Z,73.50
2019-04-14T06:00:30.570Z,68.50
2019-04-14T06:02:59.619Z,60.50
2019-04-14T06:05:29.639Z,65.50
2019-04-14T06:08:00.061Z,69.50
2019-04-14T06:10:29.116Z,59.00
2019-04-14T06:12:58.075Z,69.00
2019-04-14T06:15:27.250Z,62.00
2019-04-14T06:17:56.320Z,70.00
2019-04-14T06:20:25.321Z,64.50
2019-04-14T06:22:54.374Z,72.50
2019-04-14T06:25:25.614Z,82.50
2019-04-14T06:27:54.612Z,54.50
2019-04-14T06:30:43.577Z,87.50
2019-04-14T06:33:23.860Z,89.50
2019-04-14T06:36:20.842Z,59.00
2019-04-14T06:38:53.262Z,73.00
2019-04-14T06:41:22.351Z,46.00
2019-04-14T06:43:52.704Z,69.50
2019-04-14T06:46:21.721Z,78.00
2019-04-14T06:48:50.741Z,87.50
2019-04-14T06:51:19.781Z,77.00
2019-04-14T06:53:48.854Z,83.50
2019-04-14T06:56:17.884Z,81.00
2019-04-14T06:58:46.942Z,80.50
2019-04-14T07:01:15.949Z,73.50
2019-04-14T07:03:45.014Z,85.50
2019-04-14T07:06:14.132Z,72.00
2019-04-14T07:08:43.159Z,82.00
2019-04-14T07:11:12.161Z,70.00
2019-04-14T07:13:41.216Z,79.00
2019-04-14T07:16:10.236Z,54.50
2019-04-14T07:18:39.255Z,71.00
2019-04-14T07:21:12.130Z,67.50
2019-04-14T07:23:50.132Z,84.50
2019-04-14T07:26:19.259Z,41.50
2019-04-14T07:28:56.505Z,74.50
2019-04-14T07:31:56.558Z,61.50
2019-04-14T07:34:39.575Z,76.00
2019-04-14T07:37:26.974Z,93.00
2019-04-14T07:40:03.011Z,71.50
2019-04-14T07:42:54.060Z,77.50
2019-04-14T07:45:48.830Z,93.00
2019-04-14T07:48:34.303Z,61.00
2019-04-14T07:51:16.619Z,60.00
2019-04-14T07:54:07.640Z,73.00
2019-04-14T07:56:52.661Z,80.50
2019-04-14T07:59:27.205Z,80.00
2019-04-14T08:02:18.198Z,72.00
2019-04-14T08:04:53.645Z,71.00
2019-04-14T08:07:22.657Z,88.50
2019-04-14T08:09:51.646Z,65.00
2019-04-14T08:12:20.655Z,84.50
2019-04-14T08:14:49.683Z,85.00
2019-04-14T08:17:18.662Z,83.00
2019-04-14T08:19:47.702Z,89.00
2019-04-14T08:25:07.158Z,71.50
2019-04-14T08:27:40.231Z,84.00
2019-04-14T08:30:09.608Z,74.50
2019-04-14T08:32:39.457Z,70.00
2019-04-14T08:35:08.614Z,80.00
2019-04-14T08:37:38.285Z,77.50
2019-04-14T08:40:08.469Z,88.50
2019-04-14T08:42:58.614Z,89.00
2019-04-14T08:45:35.401Z,75.00
2019-04-14T08:48:22.303Z,60.00
2019-04-14T08:51:07.126Z,72.50
2019-04-14T08:53:49.473Z,66.00
2019-04-14T08:56:46.591Z,71.00
2019-04-14T08:59:33.421Z,71.50
2019-04-14T09:02:08.736Z,64.50
2019-04-14T09:04:42.162Z,84.50
2019-04-14T09:07:24.759Z,81.00
2019-04-14T09:09:57.021Z,78.00
2019-04-14T09:12:28.657Z,63.50
2019-04-14T09:14:57.821Z,65.00
2019-04-14T09:17:30.939Z,73.50
2019-04-14T09:19:59.921Z,78.50
2019-04-14T09:22:28.944Z,83.00
2019-04-14T09:24:58.026Z,82.50
2019-04-14T09:27:27.115Z,77.50
2019-04-14T09:29:56.210Z,78.25
2019-04-14T09:32:26.415Z,72.25
2019-04-14T09:34:55.422Z,70.25
2019-04-14T09:37:24.433Z,64.25
2019-04-14T09:39:53.715Z,76.50
2019-04-14T09:42:22.694Z,81.50
2019-04-14T09:44:51.697Z,75.75
2019-04-14T09:47:20.723Z,77.00
2019-04-14T09:49:49.890Z,76.75
2019-04-14T09:52:18.974Z,78.75
2019-04-14T09:54:47.992Z,65.50
2019-04-14T09:57:16.985Z,77.00
2019-04-14T09:59:46.070Z,76.75
2019-04-14T10:02:15.163Z,71.50
2019-04-14T10:04:44.261Z,85.75
2019-04-14T10:07:13.412Z,62.75
2019-04-14T10:09:42.559Z,76.50
2019-04-14T10:12:11.545Z,77.75
2019-04-14T10:14:40.641Z,84.75
2019-04-14T10:17:09.704Z,88.00
2019-04-14T10:19:38.767Z,68.50
2019-04-14T10:22:07.865Z,80.25
2019-04-14T10:24:36.863Z,64.00
2019-04-14T10:27:06.019Z,65.25
2019-04-14T10:29:35.024Z,75.25
2019-04-14T10:32:04.123Z,62.00
2019-04-14T10:34:35.391Z,72.75
2019-04-14T10:37:04.540Z,75.75
2019-04-14T10:39:33.531Z,56.75
2019-04-14T10:42:02.540Z,62.75
2019-04-14T10:44:31.648Z,53.00
2019-04-14T10:47:00.706Z,61.00
2019-04-14T10:49:29.702Z,68.75
2019-04-14T10:51:58.760Z,69.75
2019-04-14T10:54:27.756Z,67.50
2019-04-14T10:56:56.761Z,53.25
2019-04-14T10:59:27.012Z,69.25
2019-04-14T11:01:56.156Z,63.25
2019-04-14T11:04:25.138Z,49.00
2019-04-14T11:07:03.453Z,57.50
2019-04-14T11:09:32.457Z,74.50
2019-04-14T11:12:04.407Z,65.50
2019-04-14T11:14:33.453Z,58.25
2019-04-14T11:17:02.508Z,48.75
2019-04-14T11:19:31.511Z,56.25
2019-04-14T11:22:03.531Z,49.25
2019-04-14T11:24:32.531Z,63.75
2019-04-14T11:27:01.607Z,56.50
2019-04-14T11:29:30.720Z,52.25
2019-04-14T11:32:24.502Z,66.50
2019-04-14T11:35:21.662Z,52.25
2019-04-14T11:37:58.974Z,58.25
2019-04-14T11:40:34.434Z,54.50
2019-04-14T11:43:02.352Z,61.25
2019-04-14T11:45:31.436Z,39.75
2019-04-14T11:48:00.452Z,56.75
2019-04-14T11:50:29.739Z,64.50
2019-04-14T11:53:00.814Z,46.25
2019-04-14T11:55:29.887Z,58.75
2019-04-14T11:58:00.542Z,40.25
2019-04-14T12:00:48.568Z,56.50
2019-04-14T12:03:51.623Z,54.50
2019-04-14T12:06:31.621Z,60.75
2019-04-14T12:09:19.536Z,44.25
2019-04-14T12:11:48.583Z,48.50
2019-04-14T12:14:17.676Z,58.75
2019-04-14T12:16:46.845Z,52.50
2019-04-14T12:19:15.867Z,54.00
2019-04-14T12:21:46.209Z,58.75
2019-04-14T12:24:15.223Z,52.25
2019-04-14T12:26:44.224Z,58.00
2019-04-14T12:29:14.102Z,48.50
2019-04-14T12:31:44.133Z,55.00
2019-04-14T12:34:18.071Z,52.00
2019-04-14T12:36:46.081Z,49.75
2019-04-14T12:39:23.097Z,45.75
2019-04-14T12:42:11.879Z,50.00
2019-04-14T12:45:02.993Z,52.50
2019-04-14T12:47:51.010Z,59.25
2019-04-14T12:50:27.188Z,57.50
2019-04-14T12:52:56.563Z,57.75
2019-04-14T12:55:25.578Z,53.75
2019-04-14T12:57:57.393Z,52.50
2019-04-14T13:00:47.901Z,52.25
2019-04-14T13:03:16.987Z,54.00
2019-04-14T13:05:46.112Z,45.00
2019-04-14T13:08:15.124Z,52.75
2019-04-14T13:10:44.182Z,45.75
2019-04-14T13:13:13.227Z,42.25
2019-04-14T13:15:42.332Z,50.25
2019-04-14T13:18:11.670Z,49.25
2019-04-14T13:20:40.806Z,46.75
2019-04-14T13:23:09.781Z,57.00
2019-04-14T13:25:38.858Z,50.50
2019-04-14T13:28:07.923Z,41.75
2019-04-14T13:30:39.843Z,43.50
2019-04-14T13:35:37.025Z,44.75
2019-04-14T13:38:06.141Z,47.50
2019-04-14T13:40:35.223Z,48.00
2019-04-14T13:43:04.505Z,43.75
2019-04-14T13:45:33.523Z,53.00
2019-04-14T13:48:02.601Z,44.00
2019-04-14T13:50:31.761Z,41.50
2019-04-14T13:53:00.751Z,58.25
2019-04-14T13:55:29.726Z,57.25
2019-04-14T13:57:58.794Z,56.50
2019-04-14T14:00:27.871Z,48.25
2019-04-14T14:02:56.864Z,47.50
2019-04-14T14:05:25.924Z,44.00
2019-04-14T14:07:55.005Z,49.50
2019-04-14T14:10:24.126Z,48.00
2019-04-14T14:13:15.210Z,54.00
2019-04-14T14:16:02.110Z,50.50
2019-04-14T14:18:44.767Z,50.00
2019-04-14T14:21:31.976Z,46.50
2019-04-14T14:24:29.211Z,48.75
2019-04-14T14:26:58.336Z,46.50
2019-04-14T14:29:27.518Z,60.25
2019-04-14T14:31:57.222Z,43.25
2019-04-14T14:34:26.226Z,45.75
2019-04-14T14:36:55.334Z,47.75
2019-04-14T14:39:24.380Z,53.00
2019-04-14T14:41:53.481Z,42.00
2019-04-14T14:44:24.130Z,48.50
2019-04-14T14:47:14.844Z,53.25
2019-04-14T14:50:01.608Z,48.25
2019-04-14T14:52:31.460Z,54.50
2019-04-14T14:55:00.516Z,46.00
2019-04-14T14:57:29.692Z,50.00
2019-04-14T14:59:58.710Z,44.75
2019-04-14T15:02:27.713Z,48.25
2019-04-14T15:04:56.760Z,35.00
2019-04-14T15:07:25.760Z,55.25
2019-04-14T15:09:54.832Z,47.50
2019-04-14T15:12:23.880Z,45.50
2019-04-14T15:14:52.890Z,59.25
2019-04-14T15:17:21.940Z,51.75
2019-04-14T15:22:19.285Z,51.50
2019-04-14T15:24:48.286Z,60.00
2019-04-14T15:27:17.302Z,45.50
2019-04-14T15:29:46.298Z,85.00
2019-04-14T15:32:15.383Z,47.50
2019-04-14T15:34:44.352Z,46.75
2019-04-14T15:37:13.380Z,55.00
2019-04-14T15:39:42.491Z,48.25
2019-04-14T15:42:11.529Z,50.50
2019-04-14T15:44:40.576Z,44.50
2019-04-14T15:47:09.643Z,52.50
2019-04-14T15:49:38.633Z,44.75
2019-04-14T15:52:07.750Z,52.75
2019-04-14T15:54:36.748Z,44.50
2019-04-14T15:57:27.971Z,53.00
2019-04-14T16:00:17.250Z,57.50
2019-04-14T16:03:14.354Z,50.75
2019-04-14T16:06:03.238Z,48.25
2019-04-14T16:08:37.351Z,49.75
2019-04-14T16:11:21.929Z,32.25
2019-04-14T16:14:25.171Z,46.75
2019-04-14T16:17:18.041Z,50.00
2019-04-14T16:19:51.092Z,52.75
2019-04-14T16:22:20.512Z,54.50
2019-04-14T16:24:49.591Z,57.25
2019-04-14T16:27:31.284Z,43.25
2019-04-14T16:30:19.287Z,52.25
2019-04-14T16:33:11.189Z,55.25
2019-04-14T16:35:41.627Z,46.25
2019-04-14T16:38:10.727Z,50.25
2019-04-14T16:40:39.926Z,50.00
2019-04-14T16:43:11.086Z,41.75
2019-04-14T16:45:40.166Z,57.50
2019-04-14T16:48:09.377Z,51.25
2019-04-14T16:50:39.896Z,50.00
2019-04-14T16:53:16.594Z,57.50
2019-04-14T16:56:02.469Z,52.25
2019-04-14T16:58:35.786Z,49.25
2019-04-14T17:01:08.104Z,54.00
2019-04-14T17:03:38.813Z,52.50
2019-04-14T17:06:08.003Z,43.50
2019-04-14T17:08:37.169Z,61.50
2019-04-14T17:11:06.588Z,60.50
2019-04-14T17:13:38.750Z,50.25
2019-04-14T17:16:17.300Z,51.75
2019-04-14T17:19:06.777Z,69.75
2019-04-14T17:21:46.354Z,68.00
2019-04-14T17:24:37.506Z,58.50
2019-04-14T17:27:14.530Z,60.50
2019-04-14T17:30:02.736Z,67.50
2019-04-14T17:32:54.270Z,60.00
2019-04-14T17:35:42.588Z,60.25
2019-04-14T17:38:28.128Z,50.25
2019-04-14T17:41:15.156Z,53.25
2019-04-14T17:44:01.975Z,59.50
2019-04-14T17:46:50.001Z,54.75
2019-04-14T17:49:44.089Z,53.75
2019-04-14T17:52:37.399Z,55.00
2019-04-14T17:55:12.533Z,56.00
2019-04-14T17:57:59.204Z,56.50
2019-04-14T18:00:54.822Z,68.75
2019-04-14T18:03:48.827Z,57.00
2019-04-14T18:06:26.632Z,61.50
2019-04-14T18:09:20.658Z,61.50
2019-04-14T18:12:00.465Z,58.75
2019-04-14T18:14:38.500Z,61.75
2019-04-14T18:17:32.842Z,70.00
2019-04-14T18:20:20.841Z,52.75
2019-04-14T18:22:49.834Z,63.00
2019-04-14T18:25:18.885Z,65.75
2019-04-14T18:28:10.373Z,66.75
2019-04-14T18:30:45.815Z,59.50
2019-04-14T18:33:32.211Z,55.75
2019-04-14T18:36:22.982Z,62.25
2019-04-14T18:39:20.089Z,57.75
2019-04-14T18:41:58.660Z,62.50
2019-04-14T18:44:45.778Z,55.75
2019-04-14T18:47:33.875Z,66.00
2019-04-14T18:50:13.852Z,59.00
2019-04-14T18:53:04.660Z,56.00
2019-04-14T18:56:10.753Z,61.25
2019-04-14T18:59:03.295Z,63.75
2019-04-14T19:01:38.073Z,58.75
2019-04-14T19:04:07.117Z,59.00
2019-04-14T19:06:36.214Z,67.50
2019-04-14T19:09:07.465Z,57.50
2019-04-14T19:11:55.957Z,69.00
2019-04-14T19:14:28.850Z,63.75
2019-04-14T19:17:06.098Z,62.50
2019-04-14T19:19:36.678Z,54.50
2019-04-14T19:22:05.837Z,57.25
2019-04-14T19:24:35.136Z,68.50
2019-04-14T19:27:06.522Z,63.00
2019-04-14T19:29:35.546Z,65.00
2019-04-14T19:32:04.998Z,67.00
2019-04-14T19:34:34.110Z,69.25
2019-04-14T19:37:03.105Z,64.75
2019-04-14T19:39:32.184Z,62.25
2019-04-14T19:42:01.246Z,74.00
2019-04-14T19:44:30.254Z,66.50
2019-04-14T19:47:03.196Z,65.00
2019-04-14T19:49:32.200Z,71.25
2019-04-14T19:52:01.286Z,54.75
2019-04-14T19:54:30.318Z,60.25
2019-04-14T19:56:59.309Z,64.25
2019-04-14T19:59:28.351Z,57.25
2019-04-14T20:01:57.395Z,59.75
2019-04-14T20:04:26.719Z,66.25
2019-04-14T20:06:55.785Z,67.25
2019-04-14T20:09:30.880Z,65.25
2019-04-14T20:12:00.061Z,66.25
2019-04-14T20:14:30.644Z,66.00
2019-04-14T20:17:21.028Z,62.25
2019-04-14T20:20:01.389Z,51.50
2019-04-14T20:22:37.099Z,62.00
2019-04-14T20:25:17.110Z,65.50
2019-04-14T20:28:20.651Z,60.50
2019-04-14T20:30:53.911Z,68.00
2019-04-14T20:33:22.884Z,64.00
2019-04-14T20:35:51.994Z,67.00
2019-04-14T20:38:20.993Z,53.50
2019-04-14T20:40:51.693Z,61.25
2019-04-14T20:43:20.792Z,66.75
2019-04-14T20:45:49.881Z,58.25
2019-04-14T20:48:19.007Z,64.75
2019-04-14T20:50:48.098Z,67.75
2019-04-14T20:53:17.125Z,64.75
2019-04-14T20:55:47.655Z,55.25
2019-04-14T20:58:18.397Z,62.25
2019-04-14T21:00:47.558Z,60.50
2019-04-14T21:03:36.298Z,60.75
2019-04-14T21:06:17.667Z,68.75
2019-04-14T21:09:17.739Z,72.75
2019-04-14T21:12:20.787Z,56.50
2019-04-14T21:15:14.570Z,62.50
2019-04-14T21:18:05.679Z,62.00
2019-04-14T21:20:53.807Z,73.00
2019-04-14T21:23:59.992Z,66.50
2019-04-14T21:26:46.270Z,73.00
2019-04-14T21:29:33.269Z,74.00
2019-04-14T21:32:08.360Z,67.50
2019-04-14T21:35:09.759Z,70.75
2019-04-14T21:37:51.441Z,86.50
2019-04-14T21:40:27.658Z,68.75
2019-04-14T21:42:56.709Z,68.75
2019-04-14T21:45:26.293Z,81.75
2019-04-14T21:47:55.456Z,78.25
2019-04-14T21:50:24.520Z,72.00
2019-04-14T21:52:53.483Z,71.50
2019-04-14T21:55:22.562Z,81.25
2019-04-14T21:57:56.998Z,76.75
2019-04-14T22:01:14.622Z,84.75
2019-04-14T22:03:50.912Z,76.00
2019-04-14T22:06:25.667Z,77.50
2019-04-14T22:08:54.717Z,75.25
2019-04-14T22:11:25.321Z,87.50
2019-04-14T22:13:55.771Z,71.75
2019-04-14T22:16:24.839Z,76.25
2019-04-14T22:18:56.232Z,76.25
2019-04-14T22:21:25.251Z,63.00
2019-04-14T22:24:01.101Z,74.00
2019-04-14T22:26:26.371Z,84.50
2019-04-14T22:28:55.760Z,77.75
2019-04-14T22:31:24.727Z,87.25
2019-04-14T22:33:53.913Z,77.50
2019-04-14T22:36:22.910Z,75.25
2019-04-14T22:38:51.887Z,70.75
2019-04-14T22:41:20.987Z,75.50
2019-04-14T22:43:51.332Z,81.50
2019-04-14T22:46:20.368Z,68.25
2019-04-14T22:48:49.367Z,70.50
2019-04-14T22:51:18.621Z,70.75
2019-04-14T22:53:47.594Z,75.50
2019-04-14T22:56:16.638Z,76.75
2019-04-14T22:58:45.682Z,81.75
2019-04-14T23:01:24.732Z,88.00
2019-04-14T23:04:25.087Z,73.50
2019-04-14T23:07:15.811Z,71.50
2019-04-14T23:10:09.927Z,78.50
2019-04-14T23:12:44.378Z,88.00
2019-04-14T23:15:35.548Z,77.50
2019-04-14T23:18:27.532Z,73.50
2019-04-14T23:21:20.692Z,75.50
2019-04-14T23:24:08.125Z,75.50
2019-04-14T23:26:37.186Z,86.50
2019-04-14T23:29:06.173Z,81.50
2019-04-14T23:31:35.305Z,60.50
2019-04-14T23:34:04.414Z,89.50
2019-04-14T23:36:33.396Z,78.00
2019-04-14T23:39:02.772Z,75.00
2019-04-14T23:41:31.830Z,76.50
2019-04-14T23:44:00.830Z,82.00
2019-04-14T23:46:29.853Z,88.00
2019-04-14T23:48:58.943Z,77.00
2019-04-14T23:51:28.075Z,76.50
2019-04-14T23:53:57.087Z,73.00
2019-04-14T23:56:26.149Z,82.50
2019-04-14T23:58:55.238Z,82.00
